Azamara Quest — 9HOM8 — position and weather

sailwx.info

Track history (hours):
 
Tides and Currents Weather Stations Pressure Air Temp Water Temp Dewpoint Dewpoint Depression Visibility Wind Speed Wind Dir Waves Ship Positions

Azamara Quest

Last reported at 2017-Nov-05 13:20 UTC. Time now 2017-Nov-19 14:13 UTC.
Position N 37°13' W 000°53'.
Warning: this ship's position is 14 days out of date.

Length 181 m; draft 5.9 m.

Type: Passenger vessel. MMSI: 256216000.

Date/timePositionNaut miles runAvg speedWind from/ knotsBaromVisibWave heightAir tempDewpointWater temp
2017-Nov-05 13:20N 37°13' W 000°53'514.8
2017-Nov-05 13:00N 37°16' W 000°47'914.7
2017-Nov-05 12:25N 37°21' W 000°39'914.1
2017-Nov-05 11:49N 37°26' W 000°30'414.2
2017-Nov-05 11:30N 37°29' W 000°26'714.0
2017-Nov-05 10:58N 37°34' W 000°19'714.1
2017-Nov-05 10:30N 37°39' W 000°14'22214.6
2017-Nov-04 19:18N 40°55' E 002°01'515.3
2017-Nov-04 18:59N 40°59' E 002°04'714.8
2017-Nov-04 18:29N 41°06' E 002°08'8 0.3
2017-Nov-03 15:51N 41°13' E 002°02'514.8
2017-Nov-03 15:30N 41°10' E 001°56'714.1
2017-Nov-03 15:00N 41°08' E 001°47'713.8
2017-Nov-03 14:30N 41°07' E 001°38'9 0.9
2017-Nov-03 04:07N 40°58' E 001°34'3 9.2
2017-Nov-03 03:49N 40°57' E 001°37'3 9.3
2017-Nov-03 03:29N 40°56' E 001°41'713.7
2017-Nov-03 02:56N 40°55' E 001°51'715.3
2017-Nov-03 02:30N 40°57' E 001°60'  
2017-Oct-31 20:26N 43°39' E 007°30'48 2.3
2017-Oct-30 23:59N 43°39' E 008°35'4 7.8
2017-Oct-30 23:30N 43°38' E 008°40'4 7.9
2017-Oct-30 23:00N 43°38' E 008°46'510.8
2017-Oct-30 22:30N 43°37' E 008°53'815.2
2017-Oct-30 22:00N 43°36' E 009°04'815.1
2017-Oct-30 21:30N 43°35' E 009°14'715.1
2017-Oct-30 21:00N 43°35' E 009°24'714.6
2017-Oct-30 20:30N 43°34' E 009°34'714.9
2017-Oct-30 20:00N 43°33' E 009°45'715.0
2017-Oct-30 19:30N 43°32' E 009°55'714.6
2017-Oct-30 19:00N 43°30' E 010°05'713.1
2017-Oct-30 18:30N 43°31' E 010°14'3 6.5
2017-Oct-30 18:00N 43°33' E 010°18'0 0.1
2017-Oct-30 17:26N 43°33' E 010°18'0 0.0
2017-Oct-30 16:56N 43°33' E 010°18'0 0.0
2017-Oct-30 16:26N 43°33' E 010°18'0 0.0
2017-Oct-30 15:56N 43°33' E 010°18'0 0.0
2017-Oct-30 15:26N 43°33' E 010°18'0 0.0
2017-Oct-30 14:56N 43°33' E 010°18'0 0.0
2017-Oct-30 14:26N 43°33' E 010°18'0 0.0
2017-Oct-30 13:26N 43°33' E 010°18'0 0.0
2017-Oct-30 12:56N 43°33' E 010°18'0 0.0
2017-Oct-30 12:26N 43°33' E 010°18'0 0.0
2017-Oct-30 11:56N 43°33' E 010°18'0 0.0
2017-Oct-30 11:26N 43°33' E 010°18'0 0.0
2017-Oct-30 10:56N 43°33' E 010°18'0 0.0
2017-Oct-30 10:26N 43°33' E 010°18'0 0.0
2017-Oct-30 09:56N 43°33' E 010°18'0 0.0
2017-Oct-30 09:26N 43°33' E 010°18'0 0.0
2017-Oct-30 08:56N 43°33' E 010°18'0 0.0
2017-Oct-30 08:26N 43°33' E 010°18'0 0.0
2017-Oct-30 07:50N 43°33' E 010°18'0 0.0
2017-Oct-30 07:26N 43°33' E 010°18'0 0.0
2017-Oct-30 06:56N 43°33' E 010°18'0 0.0
2017-Oct-30 06:26N 43°33' E 010°18'0 0.0
2017-Oct-30 05:56N 43°33' E 010°18'0 0.0
2017-Oct-30 05:26N 43°33' E 010°18'0 0.0
2017-Oct-30 04:56N 43°33' E 010°18'0 0.0
2017-Oct-30 04:26N 43°33' E 010°18'0 0.0
2017-Oct-30 03:56N 43°33' E 010°18'0 0.0
2017-Oct-30 03:26N 43°33' E 010°18'0 0.0
2017-Oct-30 02:56N 43°33' E 010°18'0 0.0
2017-Oct-30 02:26N 43°33' E 010°18'0 0.0
2017-Oct-30 01:56N 43°33' E 010°18'0 0.0
2017-Oct-30 01:26N 43°33' E 010°18'0 0.0
2017-Oct-30 00:56N 43°33' E 010°18'0 0.0
2017-Oct-30 00:26N 43°33' E 010°18'0 0.0
2017-Oct-29 23:56N 43°33' E 010°18'0 0.0
2017-Oct-29 23:26N 43°33' E 010°18'0 0.0
2017-Oct-29 22:56N 43°33' E 010°18'0 0.0
2017-Oct-29 22:26N 43°33' E 010°18'0 0.0
2017-Oct-29 21:56N 43°33' E 010°18'0 0.0
2017-Oct-29 21:26N 43°33' E 010°18'0 0.0
2017-Oct-29 20:56N 43°33' E 010°18'0 0.0
2017-Oct-29 20:26N 43°33' E 010°18'0 0.0
2017-Oct-29 19:56N 43°33' E 010°18'0 0.0
2017-Oct-29 19:26N 43°33' E 010°18'0 0.0
2017-Oct-29 18:50N 43°33' E 010°18'0 0.0
2017-Oct-29 18:26N 43°33' E 010°18'0 0.0
2017-Oct-29 17:56N 43°33' E 010°18'0 0.0
2017-Oct-29 17:26N 43°33' E 010°18'0 0.0
2017-Oct-29 16:56N 43°33' E 010°18'0 0.0
2017-Oct-29 16:26N 43°33' E 010°18'0 0.0
2017-Oct-29 15:56N 43°33' E 010°18'0 0.0
2017-Oct-29 15:26N 43°33' E 010°18'0 0.0
2017-Oct-29 14:56N 43°33' E 010°18'0 0.0
2017-Oct-29 14:26N 43°33' E 010°18'0 0.0
2017-Oct-29 13:56N 43°33' E 010°18'0 0.0
2017-Oct-29 13:26N 43°33' E 010°18'0 0.0
2017-Oct-29 12:50N 43°33' E 010°18'0 0.0
2017-Oct-29 12:26N 43°33' E 010°18'0 0.0
2017-Oct-29 11:56N 43°33' E 010°18'0 0.0
2017-Oct-29 11:26N 43°33' E 010°18'0 0.0
2017-Oct-29 10:56N 43°33' E 010°18'0 0.0
2017-Oct-29 10:20N 43°33' E 010°18'0 0.0
2017-Oct-29 09:56N 43°33' E 010°18'0 0.0
2017-Oct-29 09:14N 43°33' E 010°18'0 0.0
2017-Oct-29 08:56N 43°33' E 010°18'0 0.0
2017-Oct-29 08:20N 43°33' E 010°18'0 0.0
2017-Oct-29 07:56N 43°33' E 010°18'0 0.0
2017-Oct-29 07:26N 43°33' E 010°18'0 0.0
2017-Oct-29 06:56N 43°33' E 010°18'0 0.2
2017-Oct-29 06:30N 43°33' E 010°18'2 4.8
2017-Oct-29 06:01N 43°31' E 010°15'4 7.3
2017-Oct-29 05:31N 43°28' E 010°14'5 9.9
2017-Oct-29 05:00N 43°23' E 010°13'510.1
2017-Oct-29 04:31N 43°18' E 010°11'510.4
2017-Oct-29 04:00N 43°13' E 010°10'  
Track history (hours):
 
Tides and Currents Weather Stations Pressure Air Temp Water Temp Dewpoint Dewpoint Depression Visibility Wind Speed Wind Dir Waves Ship Positions

Azamara Quest

Last reported at 2017-Nov-05 13:20 UTC. Time now 2017-Nov-19 14:13 UTC.
Position N 37°13' W 000°53'.
Warning: this ship's position is 14 days out of date.

Length 181 m; draft 5.9 m.

Type: Passenger vessel. MMSI: 256216000.

Date/timePositionNaut miles runAvg speedWind from/ knotsBaromVisibWave heightAir tempDewpointWater temp
2017-Nov-05 13:20N 37°13' W 000°53'514.8
2017-Nov-05 13:00N 37°16' W 000°47'914.7
2017-Nov-05 12:25N 37°21' W 000°39'914.1
2017-Nov-05 11:49N 37°26' W 000°30'414.2
2017-Nov-05 11:30N 37°29' W 000°26'714.0
2017-Nov-05 10:58N 37°34' W 000°19'714.1
2017-Nov-05 10:30N 37°39' W 000°14'22214.6
2017-Nov-04 19:18N 40°55' E 002°01'515.3
2017-Nov-04 18:59N 40°59' E 002°04'714.8
2017-Nov-04 18:29N 41°06' E 002°08'8 0.3
2017-Nov-03 15:51N 41°13' E 002°02'514.8
2017-Nov-03 15:30N 41°10' E 001°56'714.1
2017-Nov-03 15:00N 41°08' E 001°47'713.8
2017-Nov-03 14:30N 41°07' E 001°38'9 0.9
2017-Nov-03 04:07N 40°58' E 001°34'3 9.2
2017-Nov-03 03:49N 40°57' E 001°37'3 9.3
2017-Nov-03 03:29N 40°56' E 001°41'713.7
2017-Nov-03 02:56N 40°55' E 001°51'715.3
2017-Nov-03 02:30N 40°57' E 001°60'  
2017-Oct-31 20:26N 43°39' E 007°30'48 2.3
2017-Oct-30 23:59N 43°39' E 008°35'4 7.8
2017-Oct-30 23:30N 43°38' E 008°40'4 7.9
2017-Oct-30 23:00N 43°38' E 008°46'510.8
2017-Oct-30 22:30N 43°37' E 008°53'815.2
2017-Oct-30 22:00N 43°36' E 009°04'815.1
2017-Oct-30 21:30N 43°35' E 009°14'715.1
2017-Oct-30 21:00N 43°35' E 009°24'714.6
2017-Oct-30 20:30N 43°34' E 009°34'714.9
2017-Oct-30 20:00N 43°33' E 009°45'715.0
2017-Oct-30 19:30N 43°32' E 009°55'714.6
2017-Oct-30 19:00N 43°30' E 010°05'713.1
2017-Oct-30 18:30N 43°31' E 010°14'3 6.5
2017-Oct-30 18:00N 43°33' E 010°18'0 0.1
2017-Oct-30 17:26N 43°33' E 010°18'0 0.0
2017-Oct-30 16:56N 43°33' E 010°18'0 0.0
2017-Oct-30 16:26N 43°33' E 010°18'0 0.0
2017-Oct-30 15:56N 43°33' E 010°18'0 0.0
2017-Oct-30 15:26N 43°33' E 010°18'0 0.0
2017-Oct-30 14:56N 43°33' E 010°18'0 0.0
2017-Oct-30 14:26N 43°33' E 010°18'0 0.0
2017-Oct-30 13:26N 43°33' E 010°18'0 0.0
2017-Oct-30 12:56N 43°33' E 010°18'0 0.0
2017-Oct-30 12:26N 43°33' E 010°18'0 0.0
2017-Oct-30 11:56N 43°33' E 010°18'0 0.0
2017-Oct-30 11:26N 43°33' E 010°18'0 0.0
2017-Oct-30 10:56N 43°33' E 010°18'0 0.0
2017-Oct-30 10:26N 43°33' E 010°18'0 0.0
2017-Oct-30 09:56N 43°33' E 010°18'0 0.0
2017-Oct-30 09:26N 43°33' E 010°18'0 0.0
2017-Oct-30 08:56N 43°33' E 010°18'0 0.0
2017-Oct-30 08:26N 43°33' E 010°18'0 0.0
2017-Oct-30 07:50N 43°33' E 010°18'0 0.0
2017-Oct-30 07:26N 43°33' E 010°18'0 0.0
2017-Oct-30 06:56N 43°33' E 010°18'0 0.0
2017-Oct-30 06:26N 43°33' E 010°18'0 0.0
2017-Oct-30 05:56N 43°33' E 010°18'0 0.0
2017-Oct-30 05:26N 43°33' E 010°18'0 0.0
2017-Oct-30 04:56N 43°33' E 010°18'0 0.0
2017-Oct-30 04:26N 43°33' E 010°18'0 0.0
2017-Oct-30 03:56N 43°33' E 010°18'0 0.0
2017-Oct-30 03:26N 43°33' E 010°18'0 0.0
2017-Oct-30 02:56N 43°33' E 010°18'0 0.0
2017-Oct-30 02:26N 43°33' E 010°18'0 0.0
2017-Oct-30 01:56N 43°33' E 010°18'0 0.0
2017-Oct-30 01:26N 43°33' E 010°18'0 0.0
2017-Oct-30 00:56N 43°33' E 010°18'0 0.0
2017-Oct-30 00:26N 43°33' E 010°18'0 0.0
2017-Oct-29 23:56N 43°33' E 010°18'0 0.0
2017-Oct-29 23:26N 43°33' E 010°18'0 0.0
2017-Oct-29 22:56N 43°33' E 010°18'0 0.0
2017-Oct-29 22:26N 43°33' E 010°18'0 0.0
2017-Oct-29 21:56N 43°33' E 010°18'0 0.0
2017-Oct-29 21:26N 43°33' E 010°18'0 0.0
2017-Oct-29 20:56N 43°33' E 010°18'0 0.0
2017-Oct-29 20:26N 43°33' E 010°18'0 0.0
2017-Oct-29 19:56N 43°33' E 010°18'0 0.0
2017-Oct-29 19:26N 43°33' E 010°18'0 0.0
2017-Oct-29 18:50N 43°33' E 010°18'0 0.0
2017-Oct-29 18:26N 43°33' E 010°18'0 0.0
2017-Oct-29 17:56N 43°33' E 010°18'0 0.0
2017-Oct-29 17:26N 43°33' E 010°18'0 0.0
2017-Oct-29 16:56N 43°33' E 010°18'0 0.0
2017-Oct-29 16:26N 43°33' E 010°18'0 0.0
2017-Oct-29 15:56N 43°33' E 010°18'0 0.0
2017-Oct-29 15:26N 43°33' E 010°18'0 0.0
2017-Oct-29 14:56N 43°33' E 010°18'0 0.0
2017-Oct-29 14:26N 43°33' E 010°18'0 0.0
2017-Oct-29 13:56N 43°33' E 010°18'0 0.0
2017-Oct-29 13:26N 43°33' E 010°18'0 0.0
2017-Oct-29 12:50N 43°33' E 010°18'0 0.0
2017-Oct-29 12:26N 43°33' E 010°18'0 0.0
2017-Oct-29 11:56N 43°33' E 010°18'0 0.0
2017-Oct-29 11:26N 43°33' E 010°18'0 0.0
2017-Oct-29 10:56N 43°33' E 010°18'0 0.0
2017-Oct-29 10:20N 43°33' E 010°18'0 0.0
2017-Oct-29 09:56N 43°33' E 010°18'0 0.0
2017-Oct-29 09:14N 43°33' E 010°18'0 0.0
2017-Oct-29 08:56N 43°33' E 010°18'0 0.0
2017-Oct-29 08:20N 43°33' E 010°18'0 0.0
2017-Oct-29 07:56N 43°33' E 010°18'0 0.0
2017-Oct-29 07:26N 43°33' E 010°18'0 0.0
2017-Oct-29 06:56N 43°33' E 010°18'0 0.2
2017-Oct-29 06:30N 43°33' E 010°18'2 4.8
2017-Oct-29 06:01N 43°31' E 010°15'4 7.3
2017-Oct-29 05:31N 43°28' E 010°14'5 9.9
2017-Oct-29 05:00N 43°23' E 010°13'510.1
2017-Oct-29 04:31N 43°18' E 010°11'510.4
2017-Oct-29 04:00N 43°13' E 010°10'  

Dump ship's entire track history